Sligo Airport - TAF
(Terminal Area Forecast)


Issued at 01:06 UTC on Sun. 29-May-22


--- METARS(SA) ---
METAR EISG(SLIGO) 290100Z AUTO 04005KT CAVOK 09/06 Q1026 =


--- TAFS() ---
TAF EISG(SLIGO) 282300Z 2900/2909 03007KT 9999 FEW040 =


--- SIGMETS(WS) ---
IE - No VALID SIGMETS/Warnings FOR THIS AREA

--- SIGMETS Volcanic(WV) ---
IE - No VALID SIGMETS/Warnings FOR THIS AREA

--- SIGMETS(WS) ---
UK - No VALID SIGMETS/Warnings FOR THIS AREA

Sligo Airport - METARs

Latest METARs for Sligo and Donegal Airports - updated every 30 mins